Time;durP1;ratioP1;P1;durP2;ratioP2;P2;SDS_P1;SDS_P2;PMS_P1;PMS_P2;Temp;Humidity;BMP_temperature;BMP_pressure;BME280_temperature;BME280_humidity;BME280_pressure;Samples;Min_cycle;Max_cycle;Signal;HPM_P1;HPM_P2
2022/11/16 00:01:25;;;;;;;5.00;1.23;;;9.10;99.90;;;;;;5051224;28;20177;-59
2022/11/16 00:03:52;;;;;;;6.60;1.30;;;9.10;99.90;;;;;;5050833;28;20172;-59
2022/11/16 00:06:19;;;;;;;4.30;1.27;;;8.90;99.90;;;;;;5050975;28;20271;-59
2022/11/16 00:11:33;;;;;;;7.87;1.30;;;9.10;99.90;;;;;;5051168;28;20196;-58
2022/11/16 00:13:58;;;;;;;5.80;1.30;;;9.00;99.90;;;;;;5051313;28;20209;-57
2022/11/16 00:16:24;;;;;;;5.70;1.00;;;8.80;99.90;;;;;;5051084;28;20219;-57
2022/11/16 00:18:56;;;;;;;8.73;1.33;;;9.10;99.90;;;;;;5051036;28;20212;-57
2022/11/16 00:21:21;;;;;;;3.30;1.20;;;8.90;99.90;;;;;;5051437;28;20225;-57
2022/11/16 00:23:47;;;;;;;5.60;1.20;;;8.90;99.90;;;;;;5050953;28;20644;-57
2022/11/16 00:26:13;;;;;;;7.47;1.20;;;8.90;99.90;;;;;;5050287;28;20658;-57
2022/11/16 00:28:38;;;;;;;3.10;1.00;;;8.80;99.90;;;;;;5051099;28;20181;-58
2022/11/16 00:31:05;;;;;;;5.17;1.30;;;8.80;99.90;;;;;;5051124;28;20180;-58
2022/11/16 00:33:32;;;;;;;5.10;1.07;;;8.70;99.90;;;;;;5051009;28;20228;-57
2022/11/16 00:36:00;;;;;;;7.77;1.07;;;8.70;99.90;;;;;;5050692;28;20226;-58
2022/11/16 00:38:27;;;;;;;4.10;1.23;;;8.60;99.90;;;;;;5033012;28;20209;-58
2022/11/16 00:40:52;;;;;;;4.67;1.00;;;8.70;99.90;;;;;;5050909;28;20260;-57
2022/11/16 00:43:18;;;;;;;6.67;1.07;;;8.60;99.90;;;;;;5050875;28;20728;-57
2022/11/16 00:45:44;;;;;;;2.67;1.00;;;8.70;99.90;;;;;;5050647;28;20180;-57
2022/11/16 00:48:10;;;;;;;5.27;1.10;;;8.60;99.90;;;;;;5050934;28;20179;-57
2022/11/16 00:50:36;;;;;;;1.80;0.70;;;8.60;99.90;;;;;;5050873;28;20185;-57
2022/11/16 00:53:04;;;;;;;4.07;0.70;;;8.70;99.90;;;;;;5051211;28;20223;-57
2022/11/16 00:55:30;;;;;;;6.23;0.87;;;8.60;99.90;;;;;;5050795;28;20256;-58
2022/11/16 00:57:56;;;;;;;5.33;0.90;;;8.70;99.90;;;;;;5050919;28;20181;-58
2022/11/16 01:00:21;;;;;;;5.73;0.70;;;8.70;99.90;;;;;;5050594;28;20705;-58
2022/11/16 01:02:47;;;;;;;5.90;1.47;;;8.60;99.90;;;;;;5043727;28;20284;-58
2022/11/16 01:05:13;;;;;;;8.93;1.20;;;8.60;99.90;;;;;;5049740;28;20223;-58
2022/11/16 01:07:39;;;;;;;5.20;0.80;;;8.70;99.90;;;;;;5050687;28;20217;-58
2022/11/16 01:10:08;;;;;;;2.80;0.77;;;8.60;99.90;;;;;;5050945;28;20227;-58
2022/11/16 01:12:34;;;;;;;6.73;0.97;;;8.50;99.90;;;;;;5050583;28;20539;-58
2022/11/16 01:14:59;;;;;;;5.23;0.83;;;8.50;99.90;;;;;;5050915;28;20177;-58
2022/11/16 01:17:25;;;;;;;2.97;0.67;;;8.40;99.90;;;;;;5050717;28;20577;-58
2022/11/16 01:19:50;;;;;;;3.50;0.70;;;8.40;99.90;;;;;;5050838;28;20172;-58
2022/11/16 01:22:16;;;;;;;5.90;0.80;;;8.40;99.90;;;;;;5050873;28;20165;-58
2022/11/16 01:24:43;;;;;;;4.07;0.63;;;8.40;99.90;;;;;;5050551;28;20181;-58
2022/11/16 01:27:09;;;;;;;2.30;0.70;;;8.40;99.90;;;;;;5050856;28;20196;-58
2022/11/16 01:29:35;;;;;;;3.90;0.70;;;8.50;99.90;;;;;;5050834;28;20180;-58
2022/11/16 01:32:00;;;;;;;6.33;0.80;;;8.30;99.90;;;;;;5050535;28;20631;-58
2022/11/16 01:34:26;;;;;;;4.33;0.73;;;8.40;99.90;;;;;;5050554;28;20267;-58
2022/11/16 01:36:52;;;;;;;2.77;0.70;;;;;;;;;;5052750;28;20509;-58
2022/11/16 01:39:18;;;;;;;3.90;0.70;;;8.40;99.90;;;;;;5054592;28;20187;-58
2022/11/16 01:41:44;;;;;;;7.97;1.30;;;8.30;99.90;;;;;;5054261;28;20205;-58
2022/11/16 01:44:31;;;;;;;3.77;0.90;;;8.30;99.90;;;;;;5054081;28;20211;-58
2022/11/16 01:47:04;;;;;;;6.50;0.90;;;8.40;99.90;;;;;;5053936;28;20195;-58
2022/11/16 01:49:33;;;;;;;6.93;0.63;;;8.40;99.90;;;;;;5053479;28;20222;-58
2022/11/16 01:52:08;;;;;;;6.97;0.80;;;8.40;99.90;;;;;;5052906;28;20207;-58
2022/11/16 01:54:39;;;;;;;4.63;0.40;;;8.50;99.90;;;;;;5054011;28;20244;-58
2022/11/16 01:57:08;;;;;;;3.33;0.67;;;8.70;99.90;;;;;;5048100;28;20222;-58
2022/11/16 01:59:34;;;;;;;7.70;0.67;;;8.40;99.90;;;;;;5052998;28;20230;-58
2022/11/16 02:02:01;;;;;;;8.60;0.60;;;8.50;99.90;;;;;;5053930;28;20170;-58
2022/11/16 02:04:27;;;;;;;3.23;0.60;;;8.50;99.90;;;;;;5035443;28;20597;-58
2022/11/16 02:07:15;;;;;;;6.83;0.70;;;8.40;99.90;;;;;;5054077;28;20281;-58
2022/11/16 02:10:06;;;;;;;5.37;0.70;;;8.40;99.90;;;;;;5045668;28;20228;-58
2022/11/16 02:12:50;;;;;;;8.17;0.47;;;8.20;99.90;;;;;;5053858;28;20199;-58
2022/11/16 02:15:36;;;;;;;4.80;0.67;;;8.20;99.90;;;;;;5053737;28;20181;-58
2022/11/16 02:18:20;;;;;;;5.70;0.60;;;8.20;99.90;;;;;;5053248;28;20254;-58
2022/11/16 02:20:48;;;;;;;7.37;0.57;;;8.10;99.90;;;;;;5053511;28;20652;-58
2022/11/16 02:23:35;;;;;;;3.73;0.77;;;8.10;99.90;;;;;;5053169;28;20173;-57
2022/11/16 02:26:22;;;;;;;9.37;0.90;;;8.00;99.90;;;;;;5053138;28;20180;-57
2022/11/16 02:28:59;;;;;;;4.73;0.50;;;7.20;99.90;;;;;;5053273;28;20180;-58
2022/11/16 02:31:32;;;;;;;12.40;0.90;;;7.90;99.90;;;;;;5053288;28;20185;-57
2022/11/16 02:33:59;;;;;;;3.60;0.50;;;7.90;99.90;;;;;;5053200;28;20209;-60
2022/11/16 02:36:25;;;;;;;7.40;0.70;;;7.80;99.90;;;;;;5052654;28;20174;-57
2022/11/16 02:38:56;;;;;;;8.23;0.73;;;7.80;99.90;;;;;;5052982;28;20169;-57
2022/11/16 02:41:25;;;;;;;4.17;0.77;;;7.80;99.90;;;;;;5053271;28;20248;-57
2022/11/16 02:44:00;;;;;;;11.53;1.13;;;7.80;99.90;;;;;;5053297;28;20176;-57
2022/11/16 02:46:30;;;;;;;8.07;0.53;;;7.80;99.90;;;;;;5053415;28;20175;-57
2022/11/16 02:49:01;;;;;;;3.60;0.70;;;8.00;99.90;;;;;;5052326;28;20201;-57
2022/11/16 02:51:28;;;;;;;6.60;0.90;;;7.80;99.90;;;;;;5053024;28;20205;-57
2022/11/16 02:53:56;;;;;;;5.30;0.87;;;9.00;99.90;;;;;;5045541;28;20252;-57
2022/11/16 02:56:22;;;;;;;4.03;0.50;;;7.90;99.90;;;;;;5053004;28;20173;-57
2022/11/16 02:58:48;;;;;;;8.47;1.20;;;7.90;99.90;;;;;;5053177;28;20299;-57
2022/11/16 03:01:37;;;;;;;6.17;0.80;;;7.90;99.90;;;;;;5053211;28;20535;-57
2022/11/16 03:04:13;;;;;;;4.00;0.70;;;8.10;99.90;;;;;;5052871;28;20169;-57
2022/11/16 03:06:40;;;;;;;7.30;0.83;;;8.10;99.90;;;;;;5052915;28;20232;-57
2022/11/16 03:09:17;;;;;;;6.13;0.97;;;8.00;99.90;;;;;;5051808;28;20234;-57
2022/11/16 03:12:00;;;;;;;5.77;0.80;;;8.00;99.90;;;;;;5052683;28;20565;-57
2022/11/16 03:14:34;;;;;;;5.03;0.77;;;10.30;99.90;;;;;;4900793;22;22341;-57
2022/11/16 03:17:03;;;;;;;6.70;0.90;;;7.90;99.90;;;;;;5021926;22;20246;-56
2022/11/16 03:19:49;;;;;;;2.67;0.60;;;7.90;99.90;;;;;;5021265;28;20205;-57
2022/11/16 03:22:25;;;;;;;3.83;1.10;;;7.80;99.90;;;;;;5032763;28;20185;-56
2022/11/16 03:24:51;;;;;;;1.87;0.70;;;7.80;99.90;;;;;;5032552;28;20208;-57
2022/11/16 03:27:35;;;;;;;11.37;0.80;;;7.80;99.90;;;;;;5032605;28;20170;-57
2022/11/16 03:30:09;;;;;;;10.13;0.97;;;7.80;99.90;;;;;;5032758;28;20199;-57
2022/11/16 03:33:17;;;;;;;2.93;0.70;;;7.80;99.90;;;;;;5032664;28;20249;-57
2022/11/16 03:36:07;;;;;;;9.33;0.73;;;7.70;99.90;;;;;;5031953;28;20181;-57
2022/11/16 03:38:35;;;;;;;5.63;0.67;;;7.70;99.90;;;;;;5032508;28;20177;-57
2022/11/16 03:41:05;;;;;;;11.03;1.20;;;7.70;99.90;;;;;;5032255;28;20166;-56
2022/11/16 03:43:33;;;;;;;8.17;0.90;;;7.70;99.90;;;;;;5032269;28;20224;-56
2022/11/16 03:45:59;;;;;;;8.27;0.90;;;7.80;99.90;;;;;;5032362;28;20220;-62
2022/11/16 03:48:25;;;;;;;9.07;1.30;;;7.80;99.90;;;;;;5024752;28;20193;-57
2022/11/16 03:50:51;;;;;;;12.07;1.50;;;7.80;99.90;;;;;;5032081;28;20543;-56
2022/11/16 03:53:17;;;;;;;10.43;1.20;;;7.90;99.90;;;;;;5032115;28;20209;-56
2022/11/16 03:55:43;;;;;;;9.27;0.90;;;7.90;99.90;;;;;;5031894;28;20245;-57
2022/11/16 03:58:09;;;;;;;12.83;1.50;;;7.90;99.90;;;;;;5030601;28;20177;-57
2022/11/16 04:00:35;;;;;;;11.07;1.20;;;8.00;99.90;;;;;;5031394;28;20221;-57
2022/11/16 04:03:00;;;;;;;7.87;1.10;;;8.10;99.90;;;;;;5031129;28;20263;-57
2022/11/16 04:24:55;;;;;;;5.73;1.37;;;7.80;99.90;;;;;;5031058;28;20829;-57
2022/11/16 04:30:11;;;;;;;5.63;0.73;;;8.40;99.90;;;;;;5014422;28;20229;-57
2022/11/16 04:38:12;;;;;;;12.13;1.10;;;8.30;99.90;;;;;;4995896;28;20190;-57
2022/11/16 04:40:38;;;;;;;5.60;0.90;;;8.40;99.90;;;;;;5023526;28;20219;-57
2022/11/16 04:43:04;;;;;;;12.90;1.33;;;8.40;99.90;;;;;;5031142;28;20616;-59
2022/11/16 04:48:16;;;;;;;7.63;1.40;;;8.60;99.90;;;;;;5030373;28;20259;-58
2022/11/16 04:50:44;;;;;;;11.93;0.93;;;8.70;99.90;;;;;;5011342;28;20170;-57
2022/11/16 04:53:10;;;;;;;8.27;1.17;;;8.80;99.90;;;;;;5012424;28;20289;-58
2022/11/16 04:55:36;;;;;;;8.00;1.10;;;8.80;99.90;;;;;;5011530;28;20217;-58
2022/11/16 04:58:02;;;;;;;5.87;1.03;;;8.90;99.90;;;;;;5012418;28;20179;-58
2022/11/16 05:00:29;;;;;;;9.97;0.80;;;8.90;99.90;;;;;;5028324;28;20224;-58
2022/11/16 05:02:54;;;;;;;6.33;1.20;;;8.90;99.90;;;;;;5031204;28;20256;-57
2022/11/16 05:05:20;;;;;;;15.00;1.17;;;8.90;99.90;;;;;;5030917;28;20605;-58
2022/11/16 05:07:46;;;;;;;14.90;1.13;;;8.90;99.90;;;;;;5030841;28;20570;-57
2022/11/16 05:10:13;;;;;;;7.80;1.00;;;8.90;99.90;;;;;;5031455;28;20217;-57
2022/11/16 05:12:39;;;;;;;7.63;1.43;;;8.90;99.90;;;;;;5037107;28;20174;-58
2022/11/16 05:15:05;;;;;;;5.33;0.93;;;9.00;99.90;;;;;;5037233;28;20227;-57
2022/11/16 05:17:32;;;;;;;5.97;0.97;;;;;;;;;;5035400;28;20182;-58
2022/11/16 05:22:41;;;;;;;6.23;1.10;;;9.00;99.90;;;;;;5037658;28;20181;-58
2022/11/16 05:25:08;;;;;;;8.53;1.00;;;8.90;99.90;;;;;;5037383;28;20169;-57
2022/11/16 05:27:34;;;;;;;10.47;0.90;;;8.90;99.90;;;;;;5037488;28;20231;-58
2022/11/16 05:30:00;;;;;;;8.33;1.40;;;9.00;99.90;;;;;;5037246;28;20177;-58
2022/11/16 05:32:27;;;;;;;11.00;1.30;;;8.90;99.90;;;;;;5037569;28;20192;-58
2022/11/16 05:34:53;;;;;;;8.30;0.97;;;8.90;99.90;;;;;;5037374;28;20233;-58
2022/11/16 05:37:25;;;;;;;8.27;1.03;;;8.80;99.90;;;;;;5037362;28;20173;-58
2022/11/16 05:39:51;;;;;;;12.33;1.40;;;8.90;99.90;;;;;;5037441;28;20185;-58
2022/11/16 05:42:18;;;;;;;13.43;1.10;;;8.90;99.90;;;;;;5030673;28;20194;-57
2022/11/16 05:44:43;;;;;;;4.03;0.80;;;8.80;99.90;;;;;;5037278;28;20197;-59
2022/11/16 05:47:09;;;;;;;7.80;0.97;;;8.90;99.90;;;;;;5037280;28;20231;-57
2022/11/16 05:49:35;;;;;;;4.93;0.80;;;8.80;99.90;;;;;;5037379;28;20174;-58
2022/11/16 05:52:00;;;;;;;5.20;0.90;;;8.80;99.90;;;;;;5037299;28;20192;-58
2022/11/16 05:54:26;;;;;;;7.37;0.80;;;8.90;99.90;;;;;;5037141;28;20275;-57
2022/11/16 05:56:53;;;;;;;8.97;1.20;;;8.80;99.90;;;;;;5036977;28;20652;-58
2022/11/16 05:59:21;;;;;;;5.67;0.83;;;8.30;99.90;;;;;;5037318;28;20174;-57
2022/11/16 06:01:47;;;;;;;8.17;0.83;;;8.70;99.90;;;;;;5027847;28;20232;-57
2022/11/16 06:04:13;;;;;;;5.77;1.00;;;8.70;99.90;;;;;;5016966;28;20220;-58
2022/11/16 06:06:39;;;;;;;4.23;0.57;;;8.70;99.90;;;;;;5022374;28;20174;-58
2022/11/16 06:09:05;;;;;;;2.90;0.40;;;8.70;99.90;;;;;;5025739;28;20174;-58
2022/11/16 06:11:32;;;;;;;8.03;1.20;;;8.70;99.90;;;;;;5037120;28;20178;-59
2022/11/16 06:13:58;;;;;;;4.43;0.70;;;8.80;99.90;;;;;;5024708;28;20261;-58
2022/11/16 06:16:23;;;;;;;4.50;0.80;;;8.80;99.90;;;;;;5017162;28;20720;-58
2022/11/16 06:18:49;;;;;;;7.93;0.80;;;9.00;99.90;;;;;;5017016;28;20285;-58
2022/11/16 06:21:17;;;;;;;7.83;1.30;;;8.80;99.90;;;;;;5016949;28;20263;-58
2022/11/16 06:23:43;;;;;;;7.60;0.63;;;8.80;99.90;;;;;;5014612;28;20179;-58
2022/11/16 06:26:09;;;;;;;2.13;0.57;;;8.80;99.90;;;;;;5025926;28;20177;-58
2022/11/16 06:28:35;;;;;;;5.07;0.63;;;8.80;99.90;;;;;;5033873;28;20166;-58
2022/11/16 06:31:01;;;;;;;2.00;0.40;;;8.80;99.90;;;;;;5033887;28;20169;-58
2022/11/16 06:33:27;;;;;;;3.17;0.70;;;8.80;99.90;;;;;;5033641;28;20209;-58
2022/11/16 06:35:52;;;;;;;3.20;0.63;;;8.80;99.90;;;;;;5033727;28;20170;-58
2022/11/16 06:38:18;;;;;;;3.20;0.60;;;8.80;99.90;;;;;;5026802;28;20198;-58
2022/11/16 06:40:48;;;;;;;4.47;0.60;;;8.70;99.90;;;;;;5033407;28;20177;-58
2022/11/16 06:43:13;;;;;;;5.30;0.80;;;8.80;99.90;;;;;;5033654;28;20166;-60
2022/11/16 06:45:39;;;;;;;4.77;0.60;;;8.60;99.90;;;;;;5033546;28;20245;-58
2022/11/16 06:48:05;;;;;;;6.97;1.03;;;8.70;99.90;;;;;;5033513;28;20193;-58
2022/11/16 06:50:30;;;;;;;4.77;0.70;;;8.50;99.90;;;;;;5033350;28;20273;-58
2022/11/16 06:52:59;;;;;;;3.37;0.67;;;8.70;99.90;;;;;;5033200;28;20228;-58
2022/11/16 06:55:25;;;;;;;4.13;0.60;;;8.60;99.90;;;;;;5033433;28;20186;-58
2022/11/16 06:57:51;;;;;;;4.37;0.83;;;8.70;99.90;;;;;;5033196;28;20168;-58
2022/11/16 07:00:17;;;;;;;3.77;0.70;;;8.30;99.90;;;;;;5033198;28;20170;-56
2022/11/16 07:02:43;;;;;;;2.83;0.73;;;8.30;99.90;;;;;;5032929;28;20182;-57
2022/11/16 07:05:08;;;;;;;5.70;0.90;;;8.30;99.90;;;;;;5033037;28;20220;-57
2022/11/16 07:07:34;;;;;;;4.73;0.67;;;8.20;99.90;;;;;;5033175;28;20185;-58
2022/11/16 07:10:00;;;;;;;4.57;0.63;;;8.20;99.90;;;;;;5029438;28;20201;-58
2022/11/16 07:12:26;;;;;;;3.43;0.57;;;8.10;99.90;;;;;;5016599;28;20179;-58
2022/11/16 07:14:52;;;;;;;2.63;0.77;;;8.10;99.90;;;;;;5017897;28;20213;-58
2022/11/16 07:17:17;;;;;;;8.67;1.97;;;8.10;99.90;;;;;;5022495;28;20221;-58
2022/11/16 07:19:43;;;;;;;7.60;1.37;;;8.00;99.90;;;;;;5032084;28;20232;-58
2022/11/16 07:22:09;;;;;;;5.47;1.30;;;8.10;99.90;;;;;;5023502;28;20175;-58
2022/11/16 07:24:34;;;;;;;2.90;0.90;;;7.90;99.90;;;;;;5012918;28;20528;-58
2022/11/16 07:27:00;;;;;;;8.63;1.87;;;7.90;99.90;;;;;;5028036;28;20198;-58
2022/11/16 07:29:26;;;;;;;7.83;1.93;;;7.90;99.90;;;;;;5032775;28;20186;-58
2022/11/16 07:31:51;;;;;;;4.60;1.13;;;8.00;99.90;;;;;;5024940;28;20296;-58
2022/11/16 07:34:17;;;;;;;7.63;1.37;;;7.90;99.90;;;;;;5031882;28;20202;-58
2022/11/16 07:36:43;;;;;;;7.73;1.20;;;7.90;99.90;;;;;;5031850;28;20534;-58
2022/11/16 07:39:09;;;;;;;5.67;1.20;;;7.90;99.90;;;;;;5031794;28;20182;-57
2022/11/16 07:41:37;;;;;;;10.60;1.50;;;8.00;99.90;;;;;;5031699;28;20178;-56
2022/11/16 07:44:03;;;;;;;6.17;1.47;;;8.00;99.90;;;;;;5031523;28;20194;-58
2022/11/16 07:46:29;;;;;;;15.90;3.00;;;7.90;99.90;;;;;;5030475;28;20544;-58
2022/11/16 07:48:56;;;;;;;15.47;1.30;;;8.30;99.90;;;;;;5032345;28;20182;-56
2022/11/16 07:51:22;;;;;;;7.50;1.23;;;8.00;99.90;;;;;;5032113;28;20170;-56
2022/11/16 07:53:52;;;;;;;12.13;1.70;;;8.30;99.90;;;;;;5017893;28;20297;-56
2022/11/16 07:56:17;;;;;;;10.03;1.60;;;8.00;99.90;;;;;;5024165;28;20192;-56
2022/11/16 07:58:44;;;;;;;8.37;1.70;;;8.10;99.90;;;;;;5031687;28;20265;-56
2022/11/16 08:01:15;;;;;;;10.73;1.47;;;8.20;99.90;;;;;;5019614;28;20251;-58
2022/11/16 08:03:42;;;;;;;8.00;1.43;;;8.30;99.90;;;;;;5018984;28;20178;-58
2022/11/16 08:06:15;;;;;;;8.67;2.00;;;8.50;99.90;;;;;;5031826;28;20186;-58
2022/11/16 08:08:41;;;;;;;9.20;1.40;;;8.50;99.90;;;;;;5031925;28;20663;-56
2022/11/16 08:11:09;;;;;;;7.97;1.50;;;8.70;99.90;;;;;;5031042;28;20173;-57
2022/11/16 08:13:37;;;;;;;11.20;1.53;;;8.80;99.90;;;;;;5030026;28;20221;-56
2022/11/16 08:16:06;;;;;;;9.50;1.70;;;8.70;99.90;;;;;;5030964;28;20229;-56
2022/11/16 08:18:32;;;;;;;7.07;1.53;;;8.90;99.90;;;;;;5028823;28;20285;-56
2022/11/16 08:21:00;;;;;;;11.80;1.47;;;8.90;99.90;;;;;;5016824;28;20231;-57
2022/11/16 08:23:26;;;;;;;6.90;2.20;;;8.90;99.90;;;;;;5026080;28;20641;-58
2022/11/16 08:26:08;;;;;;;8.03;1.20;;;8.80;99.90;;;;;;5028295;28;20182;-58
2022/11/16 08:28:35;;;;;;;8.77;1.50;;;8.60;99.90;;;;;;5013040;28;20296;-58
2022/11/16 08:31:11;;;;;;;4.43;1.20;;;8.60;99.90;;;;;;5015031;28;20206;-59
2022/11/16 08:33:37;;;;;;;11.07;1.87;;;8.60;99.90;;;;;;5014840;28;20305;-58
2022/11/16 08:36:08;;;;;;;6.70;1.57;;;8.60;99.90;;;;;;5030989;28;20320;-58
2022/11/16 08:38:33;;;;;;;7.80;1.70;;;8.70;99.90;;;;;;5031344;28;20166;-59
2022/11/16 08:40:59;;;;;;;10.13;2.00;;;8.90;99.90;;;;;;5029331;28;20175;-58
2022/11/16 08:43:25;;;;;;;6.43;1.67;;;8.70;99.90;;;;;;5031276;28;20722;-58
2022/11/16 08:45:52;;;;;;;6.53;2.40;;;9.10;99.90;;;;;;5029674;28;20178;-58
2022/11/16 08:48:18;;;;;;;8.03;2.20;;;9.00;99.90;;;;;;5031362;28;20358;-58
2022/11/16 08:50:44;;;;;;;10.13;2.00;;;9.00;99.90;;;;;;5030917;28;20176;-58
2022/11/16 08:53:10;;;;;;;13.00;2.10;;;9.00;99.90;;;;;;5030632;28;20197;-58
2022/11/16 08:55:35;;;;;;;7.60;1.90;;;9.10;99.90;;;;;;5026988;28;20193;-56
2022/11/16 08:58:01;;;;;;;9.27;1.93;;;9.20;99.90;;;;;;5011441;28;20481;-56
2022/11/16 09:00:27;;;;;;;10.57;1.67;;;9.20;99.90;;;;;;5015862;28;20248;-57
2022/11/16 09:02:53;;;;;;;6.67;1.67;;;9.30;99.90;;;;;;5019298;28;20191;-57
2022/11/16 09:05:19;;;;;;;7.37;2.13;;;9.40;99.90;;;;;;5011304;28;20178;-58
2022/11/16 09:07:45;;;;;;;10.07;1.70;;;9.50;99.90;;;;;;5011187;28;20713;-58
2022/11/16 09:10:11;;;;;;;10.03;1.63;;;9.60;99.90;;;;;;5014405;28;20182;-58
2022/11/16 09:12:37;;;;;;;14.20;1.80;;;9.70;99.90;;;;;;5030846;28;20895;-58
2022/11/16 09:15:04;;;;;;;10.43;1.80;;;9.70;99.90;;;;;;5030457;28;20209;-57
2022/11/16 09:17:31;;;;;;;7.33;1.63;;;9.80;99.90;;;;;;5025721;28;20182;-57
2022/11/16 09:19:57;;;;;;;10.73;1.87;;;9.90;99.90;;;;;;5030048;28;20196;-57
2022/11/16 09:22:22;;;;;;;10.73;1.37;;;10.00;99.90;;;;;;5028716;28;20173;-54
2022/11/16 09:24:48;;;;;;;6.00;1.40;;;10.30;99.90;;;;;;5024091;28;20162;-56
2022/11/16 09:27:15;;;;;;;7.60;1.50;;;10.40;99.90;;;;;;5018091;28;20492;-57
2022/11/16 09:29:41;;;;;;;10.13;1.60;;;10.40;99.90;;;;;;5021421;28;20179;-56
2022/11/16 09:32:07;;;;;;;12.50;1.97;;;10.60;99.90;;;;;;5010788;28;20185;-55
2022/11/16 09:34:33;;;;;;;8.40;1.40;;;10.60;99.90;;;;;;5027375;28;20209;-56
2022/11/16 09:36:59;;;;;;;9.23;1.70;;;10.70;99.90;;;;;;5030659;28;20174;-55
2022/11/16 09:39:26;;;;;;;10.23;1.40;;;10.90;99.90;;;;;;5025798;28;20177;-55
2022/11/16 09:42:05;;;;;;;10.07;1.43;;;11.00;99.90;;;;;;5030656;28;20196;-55
2022/11/16 09:44:43;;;;;;;6.93;1.60;;;11.30;99.90;;;;;;5013187;28;20225;-55
2022/11/16 09:47:23;;;;;;;8.63;1.57;;;11.20;99.90;;;;;;5023670;28;20236;-54
2022/11/16 09:49:53;;;;;;;7.53;1.47;;;11.30;99.90;;;;;;5030785;28;20178;-55
2022/11/16 09:52:42;;;;;;;13.63;1.73;;;11.20;99.90;;;;;;5028647;28;20289;-54
2022/11/16 09:55:28;;;;;;;3.40;1.30;;;11.20;99.90;;;;;;5010949;28;20210;-54
2022/11/16 09:57:58;;;;;;;8.13;1.77;;;11.20;99.90;;;;;;5012537;28;20253;-54
2022/11/16 10:00:24;;;;;;;6.87;1.77;;;11.20;99.90;;;;;;5014413;28;20174;-54
2022/11/16 10:03:05;;;;;;;11.47;1.30;;;11.10;99.90;;;;;;5019735;28;20178;-54
2022/11/16 10:05:42;;;;;;;13.03;1.47;;;11.60;99.90;;;;;;5032615;28;20174;-54
2022/11/16 10:08:24;;;;;;;5.60;1.30;;;11.40;99.90;;;;;;5027292;28;20173;-54
2022/11/16 10:11:16;;;;;;;6.57;1.47;;;11.90;99.90;;;;;;5033886;28;20174;-55
2022/11/16 10:13:58;;;;;;;6.33;1.37;;;12.20;99.90;;;;;;5032294;28;20214;-55
2022/11/16 10:16:50;;;;;;;8.13;1.40;;;12.40;99.90;;;;;;5033872;28;20221;-54
2022/11/16 10:19:40;;;;;;;6.13;1.30;;;12.10;99.90;;;;;;5033830;28;20383;-55
2022/11/16 10:22:17;;;;;;;5.73;1.10;;;12.40;99.90;;;;;;5014035;28;20701;-56
2022/11/16 10:24:52;;;;;;;9.50;1.00;;;12.40;99.90;;;;;;5031494;28;20643;-55
2022/11/16 10:27:27;;;;;;;8.43;1.27;;;12.50;99.90;;;;;;5026295;28;20186;-55
2022/11/16 10:30:32;;;;;;;12.13;1.30;;;12.70;99.90;;;;;;5013491;28;20721;-55
2022/11/16 10:33:04;;;;;;;7.23;1.67;;;12.80;99.90;;;;;;4920967;29;20241;-55
2022/11/16 10:35:44;;;;;;;13.53;1.57;;;12.80;99.90;;;;;;5010403;28;20198;-54
2022/11/16 10:38:16;;;;;;;10.70;1.83;;;12.40;99.90;;;;;;5023360;28;20188;-56
2022/11/16 10:40:45;;;;;;;11.50;1.77;;;12.30;99.90;;;;;;5032637;28;20182;-56
2022/11/16 10:43:15;;;;;;;5.30;1.43;;;12.60;99.90;;;;;;5033355;28;20162;-56
2022/11/16 10:45:54;;;;;;;11.97;1.57;;;13.30;99.90;;;;;;5032914;28;20166;-56
2022/11/16 10:48:58;;;;;;;9.20;1.20;;;13.60;99.90;;;;;;5033295;28;20235;-56
2022/11/16 10:51:23;;;;;;;12.40;2.07;;;13.60;99.90;;;;;;5033335;28;20215;-56
2022/11/16 10:53:49;;;;;;;13.17;2.07;;;13.70;99.90;;;;;;5032922;28;20626;-56
2022/11/16 10:56:28;;;;;;;12.73;1.90;;;13.70;99.90;;;;;;5032716;28;20557;-56
2022/11/16 10:59:03;;;;;;;7.00;1.17;;;13.30;99.90;;;;;;5032630;28;20686;-56
2022/11/16 11:01:40;;;;;;;8.13;1.30;;;12.70;99.90;;;;;;5032988;28;20165;-56
2022/11/16 11:04:11;;;;;;;7.55;1.65;;;13.50;99.90;;;;;;5032944;28;20174;-56
2022/11/16 11:06:38;;;;;;;5.70;1.27;;;14.90;99.90;;;;;;5032906;28;20560;-57
2022/11/16 11:09:37;;;;;;;10.13;1.65;;;14.80;99.90;;;;;;5031913;28;20192;-56
2022/11/16 11:15:10;;;;;;;8.95;1.25;;;13.50;99.90;;;;;;5033007;28;20578;-55
2022/11/16 11:17:38;;;;;;;10.20;1.93;;;13.00;99.90;;;;;;5027718;28;20243;-56
2022/11/16 11:20:06;;;;;;;6.33;1.20;;;13.20;99.90;;;;;;5030870;28;20236;-56
2022/11/16 11:22:34;;;;;;;9.47;1.37;;;12.90;99.90;;;;;;5032948;28;20197;-56
2022/11/16 11:25:02;;;;;;;7.07;1.50;;;12.90;99.90;;;;;;5032724;28;20269;-55
2022/11/16 11:27:34;;;;;;;12.70;1.50;;;13.30;99.90;;;;;;5032888;28;20191;-55
2022/11/16 11:30:00;;;;;;;9.17;1.80;;;14.10;99.90;;;;;;5032625;28;20185;-56
2022/11/16 11:32:38;;;;;;;11.32;1.45;;;15.80;99.90;;;;;;5032530;28;20177;-56
2022/11/16 11:35:05;;;;;;;7.05;1.65;;;15.10;99.90;;;;;;5032128;28;20221;-56
2022/11/16 11:37:37;;;;;;;9.07;1.60;;;14.00;99.90;;;;;;5030712;28;20174;-56
2022/11/16 11:40:17;;;;;;;8.68;1.80;;;13.00;99.90;;;;;;5031188;28;20181;-56
2022/11/16 11:42:52;;;;;;;13.77;2.00;;;13.00;99.90;;;;;;5020381;28;20344;-56
2022/11/16 11:45:20;;;;;;;8.80;1.60;;;12.80;99.90;;;;;;5029459;28;20197;-56
2022/11/16 11:48:12;;;;;;;10.93;1.30;;;12.50;99.90;;;;;;5028307;28;20174;-55
2022/11/16 11:50:41;;;;;;;8.43;1.33;;;12.50;99.90;;;;;;5021577;28;20213;-56
2022/11/16 11:53:26;;;;;;;12.27;1.87;;;12.60;99.90;;;;;;5030845;28;20167;-56
2022/11/16 11:55:56;;;;;;;9.63;1.73;;;12.40;99.90;;;;;;5031946;28;20181;-56
2022/11/16 11:58:27;;;;;;;17.77;2.23;;;12.20;99.90;;;;;;5031317;28;20637;-56
2022/11/16 12:01:16;;;;;;;12.20;1.80;;;12.50;99.90;;;;;;5015262;28;20171;-56
2022/11/16 12:04:10;;;;;;;11.27;1.40;;;12.40;99.90;;;;;;5012050;28;20638;-56
2022/11/16 12:06:57;;;;;;;7.70;1.37;;;12.20;99.90;;;;;;5010974;28;20251;-55
2022/11/16 12:09:40;;;;;;;9.37;1.40;;;12.40;99.90;;;;;;5031230;28;20176;-56
2022/11/16 12:12:43;;;;;;;7.23;1.60;;;12.50;99.90;;;;;;5029554;28;20219;-56
2022/11/16 12:15:50;;;;;;;13.97;1.97;;;12.00;99.90;;;;;;5015221;28;20244;-56
2022/11/16 12:18:43;;;;;;;10.97;1.70;;;12.10;99.90;;;;;;5027634;28;20223;-56
2022/11/16 12:21:16;;;;;;;8.63;1.30;;;12.00;99.90;;;;;;5022021;28;20182;-55
2022/11/16 12:24:30;;;;;;;8.70;1.60;;;12.20;99.90;;;;;;5030129;28;20171;-55
2022/11/16 12:27:17;;;;;;;12.97;2.17;;;12.30;99.90;;;;;;4965735;28;20285;-56
2022/11/16 12:29:45;;;;;;;11.27;1.90;;;12.40;99.90;;;;;;5011971;28;20181;-55
2022/11/16 12:32:26;;;;;;;16.33;1.80;;;12.40;99.90;;;;;;5011532;28;20187;-56
2022/11/16 12:35:23;;;;;;;14.27;2.87;;;12.40;99.90;;;;;;5011591;28;20220;-56
2022/11/16 12:38:03;;;;;;;17.37;2.07;;;12.40;99.90;;;;;;5025203;28;20221;-56
2022/11/16 12:40:38;;;;;;;9.50;1.93;;;12.50;99.90;;;;;;5029076;28;20177;-56
2022/11/16 12:43:09;;;;;;;11.27;1.83;;;12.10;99.90;;;;;;5019034;28;20179;-56
2022/11/16 12:45:58;;;;;;;15.77;2.53;;;12.30;99.90;;;;;;5028698;28;20166;-56
2022/11/16 12:48:35;;;;;;;13.33;1.97;;;12.20;99.90;;;;;;5029326;28;20671;-56
2022/11/16 12:51:19;;;;;;;17.10;1.93;;;12.30;99.90;;;;;;5029758;28;20203;-56
2022/11/16 12:54:22;;;;;;;12.70;2.13;;;12.20;99.90;;;;;;5029846;28;20205;-56
2022/11/16 12:57:09;;;;;;;13.73;3.33;;;12.40;99.90;;;;;;5031319;28;20166;-56
2022/11/16 13:00:11;;;;;;;9.70;1.80;;;12.50;99.90;;;;;;5031114;28;20683;-56
2022/11/16 13:02:55;;;;;;;20.27;1.77;;;12.30;99.90;;;;;;5027501;28;20597;-56
2022/11/16 13:05:34;;;;;;;10.80;1.70;;;12.20;99.90;;;;;;5028777;28;20249;-56
2022/11/16 13:08:08;;;;;;;10.40;1.63;;;12.30;99.90;;;;;;5030918;28;20174;-56
2022/11/16 13:10:41;;;;;;;11.33;1.83;;;12.30;99.90;;;;;;5031037;28;20247;-56
2022/11/16 13:13:20;;;;;;;13.00;1.77;;;12.30;99.90;;;;;;5018330;28;20691;-56
2022/11/16 13:15:47;;;;;;;9.07;1.40;;;;;;;;;;5029393;28;20241;-56
2022/11/16 13:18:17;;;;;;;9.23;1.53;;;12.30;99.90;;;;;;5011304;28;20182;-56
2022/11/16 13:21:10;;;;;;;11.53;1.83;;;12.30;99.90;;;;;;5011162;28;20309;-56
2022/11/16 13:23:51;;;;;;;7.33;1.50;;;12.10;99.90;;;;;;5012822;28;20564;-56
2022/11/16 13:26:39;;;;;;;13.07;2.00;;;12.30;99.90;;;;;;5024295;28;20698;-57
2022/11/16 13:29:32;;;;;;;12.23;1.47;;;12.20;99.90;;;;;;5030829;28;20170;-56
2022/11/16 13:32:27;;;;;;;18.37;1.67;;;11.80;99.90;;;;;;5031341;28;20181;-56
2022/11/16 13:34:53;;;;;;;11.97;1.80;;;;;;;;;;5025024;28;20207;-56
2022/11/16 13:37:37;;;;;;;14.27;2.20;;;11.50;99.90;;;;;;5034710;28;20177;-56
2022/11/16 13:40:03;;;;;;;12.23;1.93;;;11.80;99.90;;;;;;5034239;28;20186;-56
2022/11/16 13:42:50;;;;;;;12.80;1.47;;;11.80;99.90;;;;;;5034598;28;20224;-56
2022/11/16 13:45:19;;;;;;;9.37;1.50;;;11.90;99.90;;;;;;5009606;28;20556;-56
2022/11/16 13:47:51;;;;;;;14.27;2.07;;;11.90;99.90;;;;;;5033532;28;20277;-56
2022/11/16 13:50:21;;;;;;;15.63;2.07;;;12.00;99.90;;;;;;5026332;28;20219;-56
2022/11/16 13:52:50;;;;;;;15.05;1.83;;;12.20;99.90;;;;;;5033851;28;21108;-56
2022/11/16 13:55:34;;;;;;;21.07;2.27;;;11.90;99.90;;;;;;5033217;28;20217;-56